createdAt,value
2022-10-23T00:00:35.577Z,3.50
2022-10-23T00:03:02.461Z,5.17
2022-10-23T00:05:29.597Z,3.73
2022-10-23T00:07:59.375Z,3.93
2022-10-23T00:10:29.910Z,3.87
2022-10-23T00:12:56.631Z,3.90
2022-10-23T00:15:23.629Z,4.10
2022-10-23T00:17:50.610Z,3.77
2022-10-23T00:20:17.777Z,3.60
2022-10-23T00:22:44.619Z,3.53
2022-10-23T00:25:13.637Z,3.53
2022-10-23T00:27:40.496Z,3.87
2022-10-23T00:30:07.896Z,3.40
2022-10-23T00:32:34.574Z,3.87
2022-10-23T00:35:01.378Z,3.60
2022-10-23T00:37:28.041Z,3.53
2022-10-23T00:39:54.916Z,5.40
2022-10-23T00:42:23.559Z,4.33
2022-10-23T00:44:50.337Z,3.30
2022-10-23T00:47:17.744Z,3.53
2022-10-23T00:49:44.438Z,3.30
2022-10-23T00:52:13.208Z,3.70
2022-10-23T00:54:42.165Z,4.00
2022-10-23T00:57:12.923Z,3.37
2022-10-23T00:59:40.154Z,4.20
2022-10-23T01:02:08.333Z,4.40
2022-10-23T01:04:35.228Z,5.37
2022-10-23T01:07:14.191Z,3.70
2022-10-23T01:09:43.675Z,3.50
2022-10-23T01:12:39.451Z,3.43
2022-10-23T01:15:28.112Z,3.33
2022-10-23T01:18:20.716Z,4.77
2022-10-23T01:21:01.752Z,4.10
2022-10-23T01:23:31.592Z,5.13
2022-10-23T01:26:13.614Z,3.53
2022-10-23T01:28:47.641Z,3.93
2022-10-23T01:31:39.989Z,3.30
2022-10-23T01:34:15.042Z,3.90
2022-10-23T01:36:44.565Z,3.30
2022-10-23T01:39:46.944Z,4.47
2022-10-23T01:42:17.737Z,3.50
2022-10-23T01:44:46.062Z,3.33
2022-10-23T01:47:14.654Z,3.07
2022-10-23T01:49:42.753Z,3.30
2022-10-23T01:52:12.948Z,3.80
2022-10-23T01:54:42.916Z,3.53
2022-10-23T01:57:13.275Z,3.07
2022-10-23T01:59:48.923Z,3.60
2022-10-23T02:02:16.479Z,3.37
2022-10-23T02:04:59.274Z,2.83
2022-10-23T02:07:26.778Z,3.20
2022-10-23T02:09:53.539Z,3.20
2022-10-23T02:12:57.413Z,3.97
2022-10-23T02:15:35.852Z,3.00
2022-10-23T02:18:25.824Z,3.53
2022-10-23T02:21:02.897Z,3.03
2022-10-23T02:23:35.998Z,4.13
2022-10-23T02:26:08.601Z,3.07
2022-10-23T02:28:43.610Z,4.47
2022-10-23T02:31:13.703Z,2.73
2022-10-23T02:33:40.807Z,2.77
2022-10-23T02:36:07.818Z,3.10
2022-10-23T02:38:37.397Z,3.17
2022-10-23T02:41:23.753Z,2.57
2022-10-23T02:44:01.900Z,2.73
2022-10-23T02:46:49.832Z,3.67
2022-10-23T02:49:30.303Z,2.73
2022-10-23T02:52:05.218Z,2.83
2022-10-23T02:54:52.904Z,3.33
2022-10-23T02:57:26.745Z,2.70
2022-10-23T03:00:09.484Z,2.90
2022-10-23T03:02:40.107Z,2.53
2022-10-23T03:05:10.519Z,2.67
2022-10-23T03:07:39.192Z,2.80
2022-10-23T03:10:07.054Z,3.07
2022-10-23T03:12:33.821Z,3.30
2022-10-23T03:15:00.431Z,2.60
2022-10-23T03:17:27.105Z,2.70
2022-10-23T03:19:53.724Z,3.73
2022-10-23T03:22:20.363Z,2.53
2022-10-23T03:24:47.022Z,2.80
2022-10-23T03:27:13.782Z,3.07
2022-10-23T03:29:40.529Z,3.03
2022-10-23T03:32:07.245Z,2.80
2022-10-23T03:34:34.698Z,2.50
2022-10-23T03:37:01.378Z,3.27
2022-10-23T03:39:28.165Z,3.00
2022-10-23T03:41:54.788Z,4.13
2022-10-23T03:44:21.421Z,2.60
2022-10-23T03:46:48.034Z,2.70
2022-10-23T03:49:14.970Z,2.80
2022-10-23T03:51:41.971Z,2.77
2022-10-23T03:54:09.094Z,2.93
2022-10-23T03:56:35.811Z,2.73
2022-10-23T03:59:02.475Z,3.03
2022-10-23T04:01:29.268Z,2.53
2022-10-23T04:03:56.003Z,2.83
2022-10-23T04:06:22.638Z,2.70
2022-10-23T04:08:49.325Z,5.57
2022-10-23T04:11:16.001Z,2.37
2022-10-23T04:13:42.742Z,3.23
2022-10-23T04:16:09.379Z,2.63
2022-10-23T04:18:36.032Z,2.67
2022-10-23T04:21:03.777Z,2.90
2022-10-23T04:23:30.411Z,2.60
2022-10-23T04:25:58.065Z,2.60
2022-10-23T04:28:25.205Z,4.70
2022-10-23T04:30:51.897Z,2.50
2022-10-23T04:33:18.768Z,4.20
2022-10-23T04:35:45.461Z,2.50
2022-10-23T04:38:12.426Z,2.50
2022-10-23T04:40:39.063Z,2.20
2022-10-23T04:43:05.736Z,2.20
2022-10-23T04:45:32.384Z,3.20
2022-10-23T04:47:59.052Z,2.63
2022-10-23T04:50:25.799Z,3.47
2022-10-23T04:52:56.871Z,2.73
2022-10-23T04:55:25.405Z,3.80
2022-10-23T04:57:52.812Z,2.30
2022-10-23T05:00:19.858Z,2.27
2022-10-23T05:02:46.534Z,2.70
2022-10-23T05:05:13.169Z,2.50
2022-10-23T05:07:39.906Z,3.43
2022-10-23T05:10:07.030Z,2.37
2022-10-23T05:12:33.656Z,2.20
2022-10-23T05:15:01.210Z,2.53
2022-10-23T05:17:33.687Z,2.43
2022-10-23T05:20:03.915Z,2.37
2022-10-23T05:22:33.778Z,2.33
2022-10-23T05:25:02.147Z,5.03
2022-10-23T05:27:28.813Z,2.40
2022-10-23T05:29:55.413Z,2.50
2022-10-23T05:32:22.503Z,2.30
2022-10-23T05:34:49.151Z,2.13
2022-10-23T05:37:16.472Z,2.27
2022-10-23T05:39:43.217Z,2.10
2022-10-23T05:42:09.867Z,2.33
2022-10-23T05:44:36.783Z,2.80
2022-10-23T05:47:03.447Z,2.40
2022-10-23T05:49:30.071Z,2.30
2022-10-23T05:51:56.690Z,3.87
2022-10-23T05:54:23.379Z,2.30
2022-10-23T05:56:50.084Z,2.53
2022-10-23T05:59:20.412Z,2.50
2022-10-23T06:01:49.741Z,3.73
2022-10-23T06:04:16.393Z,2.10
2022-10-23T06:06:47.869Z,2.20
2022-10-23T06:09:15.591Z,2.40
2022-10-23T06:11:43.001Z,3.17
2022-10-23T06:14:09.707Z,2.40
2022-10-23T06:16:36.449Z,2.57
2022-10-23T06:19:03.202Z,2.17
2022-10-23T06:21:29.835Z,2.37
2022-10-23T06:23:56.538Z,2.43
2022-10-23T06:26:23.182Z,1.80
2022-10-23T06:28:49.825Z,2.40
2022-10-23T06:31:19.102Z,2.03
2022-10-23T06:33:45.760Z,2.10
2022-10-23T06:36:12.890Z,1.90
2022-10-23T06:38:40.460Z,1.87
2022-10-23T06:41:13.081Z,1.97
2022-10-23T06:43:39.739Z,2.10
2022-10-23T06:46:06.478Z,1.80
2022-10-23T06:48:33.097Z,2.20
2022-10-23T06:51:00.086Z,3.07
2022-10-23T06:53:27.817Z,1.80
2022-10-23T06:56:02.380Z,1.93
2022-10-23T06:58:29.235Z,1.90
2022-10-23T07:00:56.545Z,1.90
2022-10-23T07:03:23.266Z,2.07
2022-10-23T07:05:49.895Z,1.67
2022-10-23T07:08:16.610Z,2.40
2022-10-23T07:10:43.374Z,1.90
2022-10-23T07:13:11.190Z,2.17
2022-10-23T07:15:38.674Z,1.87
2022-10-23T07:18:05.985Z,2.53
2022-10-23T07:20:32.776Z,3.73
2022-10-23T07:22:59.414Z,1.77
2022-10-23T07:25:27.044Z,2.00
2022-10-23T07:27:55.705Z,2.30
2022-10-23T07:30:22.493Z,3.00
2022-10-23T07:32:49.109Z,2.10
2022-10-23T07:35:16.811Z,3.40
2022-10-23T07:37:43.976Z,2.40
2022-10-23T07:40:11.253Z,2.17
2022-10-23T07:42:38.835Z,2.07
2022-10-23T07:45:07.501Z,2.20
2022-10-23T07:47:34.496Z,2.17
2022-10-23T07:50:01.195Z,1.90
2022-10-23T07:52:31.960Z,3.07
2022-10-23T07:55:01.818Z,2.43
2022-10-23T07:57:28.478Z,2.10
2022-10-23T07:59:55.259Z,2.20
2022-10-23T08:02:22.015Z,2.53
2022-10-23T08:04:49.898Z,3.73
2022-10-23T08:07:16.754Z,2.90
2022-10-23T08:09:43.529Z,2.03
2022-10-23T08:12:10.464Z,2.53
2022-10-23T08:14:37.145Z,2.00
2022-10-23T08:17:05.214Z,1.97
2022-10-23T08:19:32.290Z,2.33
2022-10-23T08:21:59.039Z,3.43
2022-10-23T08:24:25.666Z,2.00
2022-10-23T08:26:52.346Z,3.13
2022-10-23T08:29:19.157Z,2.13
2022-10-23T08:31:45.998Z,2.10
2022-10-23T08:34:22.161Z,2.67
2022-10-23T08:37:51.608Z,2.30
2022-10-23T08:39:50.150Z,2.00
2022-10-23T08:42:25.281Z,2.00
2022-10-23T08:45:06.595Z,2.20
2022-10-23T08:47:42.853Z,2.37
2022-10-23T08:50:32.840Z,3.37
2022-10-23T08:53:12.587Z,3.05
2022-10-23T08:55:43.972Z,2.43
2022-10-23T08:58:23.357Z,2.90
2022-10-23T09:00:50.539Z,3.53
2022-10-23T09:03:18.221Z,2.50
2022-10-23T09:06:09.042Z,2.60
2022-10-23T09:08:40.674Z,3.60
2022-10-23T09:11:32.297Z,2.87
2022-10-23T09:14:14.493Z,2.20
2022-10-23T09:17:26.529Z,2.40
2022-10-23T09:20:00.276Z,2.07
2022-10-23T09:22:27.934Z,2.00
2022-10-23T09:24:54.566Z,1.90
2022-10-23T09:27:21.286Z,1.53
2022-10-23T09:29:50.130Z,1.90
2022-10-23T09:32:16.837Z,1.63
2022-10-23T09:34:55.042Z,1.77
2022-10-23T09:37:25.611Z,1.97
2022-10-23T09:40:02.878Z,1.70
2022-10-23T09:42:29.546Z,1.73
2022-10-23T09:44:57.480Z,1.83
2022-10-23T09:47:25.780Z,2.03
2022-10-23T09:49:54.928Z,1.63
2022-10-23T09:52:21.529Z,1.57
2022-10-23T09:54:56.878Z,1.90
2022-10-23T09:57:44.311Z,1.60
2022-10-23T10:00:13.979Z,1.40
2022-10-23T10:08:18.248Z,1.63
2022-10-23T10:10:49.846Z,1.80
2022-10-23T10:13:45.331Z,2.43
2022-10-23T10:19:35.070Z,2.47
2022-10-23T10:22:56.203Z,1.70
2022-10-23T10:25:40.467Z,1.90
2022-10-23T10:28:25.849Z,2.40
2022-10-23T10:31:20.022Z,1.60
2022-10-23T10:34:05.423Z,1.63
2022-10-23T10:36:51.443Z,1.97
2022-10-23T10:39:40.016Z,1.60
2022-10-23T10:42:17.234Z,1.47
2022-10-23T10:45:05.802Z,1.77
2022-10-23T10:48:03.819Z,1.60
2022-10-23T10:51:03.242Z,1.80
2022-10-23T10:54:23.586Z,1.63
2022-10-23T10:56:50.419Z,1.80
2022-10-23T10:59:21.070Z,1.70
2022-10-23T11:02:04.432Z,1.57
2022-10-23T11:04:35.511Z,3.40
2022-10-23T11:07:07.575Z,1.70
2022-10-23T11:09:34.577Z,1.50
2022-10-23T11:12:01.361Z,1.90
2022-10-23T11:14:31.735Z,1.60
2022-10-23T11:17:07.867Z,2.77
2022-10-23T11:19:35.985Z,1.70
2022-10-23T11:22:23.678Z,1.40
2022-10-23T11:25:28.692Z,1.60
2022-10-23T11:28:13.460Z,1.40
2022-10-23T11:31:22.187Z,1.67
2022-10-23T11:34:01.334Z,1.83
2022-10-23T11:37:09.139Z,2.13
2022-10-23T11:39:37.743Z,2.77
2022-10-23T11:42:04.341Z,2.30
2022-10-23T11:44:45.994Z,2.50
2022-10-23T11:47:34.990Z,2.40
2022-10-23T11:50:07.735Z,2.43
2022-10-23T11:53:12.609Z,2.40
2022-10-23T11:55:42.069Z,2.10
2022-10-23T11:58:22.317Z,2.87
2022-10-23T12:00:59.874Z,2.60
2022-10-23T12:03:31.627Z,2.23
2022-10-23T12:06:04.475Z,2.00
2022-10-23T12:08:34.206Z,3.80
2022-10-23T12:11:01.099Z,1.93
2022-10-23T12:13:37.392Z,1.97
2022-10-23T12:16:07.453Z,1.80
2022-10-23T12:18:44.573Z,2.57
2022-10-23T12:21:22.967Z,2.10
2022-10-23T12:24:09.240Z,1.80
2022-10-23T12:26:46.765Z,1.83
2022-10-23T12:29:22.219Z,2.37
2022-10-23T12:32:01.839Z,2.30
2022-10-23T12:34:46.290Z,2.10
2022-10-23T12:37:51.516Z,2.03
2022-10-23T12:40:18.278Z,1.60
2022-10-23T12:42:54.620Z,1.53
2022-10-23T12:45:27.756Z,1.80
2022-10-23T12:47:54.900Z,2.43
2022-10-23T12:50:27.370Z,1.40
2022-10-23T12:52:56.380Z,2.33
2022-10-23T12:55:24.997Z,1.60
2022-10-23T12:57:52.752Z,1.90
2022-10-23T13:00:22.223Z,1.57
2022-10-23T13:02:59.931Z,2.43
2022-10-23T13:05:27.615Z,1.80
2022-10-23T13:07:54.524Z,2.27
2022-10-23T13:10:22.590Z,1.73
2022-10-23T13:12:58.521Z,3.10
2022-10-23T13:15:26.677Z,2.33
2022-10-23T13:17:53.336Z,1.67
2022-10-23T13:20:28.869Z,1.87
2022-10-23T13:23:00.764Z,2.43
2022-10-23T13:25:33.184Z,1.83
2022-10-23T13:28:14.066Z,2.27
2022-10-23T13:30:46.122Z,2.10
2022-10-23T13:33:23.415Z,3.13
2022-10-23T13:36:02.432Z,3.03
2022-10-23T13:38:31.237Z,4.43
2022-10-23T13:41:02.051Z,3.00
2022-10-23T13:43:30.708Z,3.20
2022-10-23T13:46:01.321Z,3.70
2022-10-23T13:48:29.037Z,2.60
2022-10-23T13:51:02.350Z,3.40
2022-10-23T13:53:30.464Z,6.27
2022-10-23T13:55:58.716Z,2.60
2022-10-23T13:58:25.845Z,2.57
2022-10-23T14:00:53.209Z,2.83
2022-10-23T14:03:24.273Z,2.50
2022-10-23T14:05:51.709Z,2.10
2022-10-23T14:08:18.553Z,2.27
2022-10-23T14:10:45.951Z,2.10
2022-10-23T14:13:12.698Z,2.23
2022-10-23T14:15:39.480Z,2.10
2022-10-23T14:18:08.356Z,2.00
2022-10-23T14:20:35.285Z,2.00
2022-10-23T14:23:02.101Z,1.90
2022-10-23T14:25:28.717Z,2.73
2022-10-23T14:30:26.846Z,1.80
2022-10-23T14:32:53.457Z,2.10
2022-10-23T14:35:20.155Z,1.97
2022-10-23T14:37:47.219Z,1.93
2022-10-23T14:40:13.927Z,2.10
2022-10-23T14:42:40.610Z,2.30
2022-10-23T14:45:07.876Z,2.10
2022-10-23T14:47:34.689Z,2.57
2022-10-23T14:50:04.563Z,2.40
2022-10-23T14:52:31.614Z,3.10
2022-10-23T14:54:58.769Z,2.40
2022-10-23T14:57:25.860Z,2.20
2022-10-23T15:00:01.167Z,2.40
2022-10-23T15:02:28.690Z,2.70
2022-10-23T15:04:55.532Z,3.97
2022-10-23T15:07:22.218Z,5.17
2022-10-23T15:09:51.750Z,3.50
2022-10-23T15:12:18.782Z,2.50
2022-10-23T15:14:52.985Z,2.10
2022-10-23T15:17:20.251Z,2.80
2022-10-23T15:19:48.256Z,2.77
2022-10-23T15:22:14.880Z,2.60
2022-10-23T15:24:41.783Z,2.30
2022-10-23T15:29:36.197Z,2.30
2022-10-23T15:32:04.233Z,2.43
2022-10-23T15:34:32.408Z,3.87
2022-10-23T15:36:59.458Z,4.77
2022-10-23T15:39:29.341Z,2.70
2022-10-23T15:41:58.145Z,2.90
2022-10-23T15:44:27.068Z,2.80
2022-10-23T15:46:54.203Z,3.97
2022-10-23T15:49:20.848Z,3.27
2022-10-23T15:51:47.580Z,2.90
2022-10-23T15:54:17.022Z,3.10
2022-10-23T15:56:44.652Z,3.23
2022-10-23T15:59:30.584Z,3.67
2022-10-23T16:01:57.495Z,3.50
2022-10-23T16:04:24.410Z,3.33
2022-10-23T16:06:51.154Z,3.43
2022-10-23T16:09:17.854Z,3.97
2022-10-23T16:11:45.286Z,3.20
2022-10-23T16:14:14.581Z,3.80
2022-10-23T16:16:41.243Z,3.40
2022-10-23T16:19:08.281Z,4.43
2022-10-23T16:21:36.143Z,4.57
2022-10-23T16:24:04.950Z,4.37
2022-10-23T16:26:31.831Z,4.93
2022-10-23T16:29:01.189Z,4.10
2022-10-23T16:31:27.924Z,4.73
2022-10-23T16:36:28.964Z,4.20
2022-10-23T16:38:55.981Z,4.57
2022-10-23T16:41:22.614Z,4.70
2022-10-23T16:43:49.390Z,4.43
2022-10-23T16:46:18.635Z,4.83
2022-10-23T16:48:45.879Z,4.47
2022-10-23T16:51:14.853Z,5.17
2022-10-23T16:53:42.477Z,4.83
2022-10-23T16:56:10.762Z,5.13
2022-10-23T16:58:37.692Z,5.00
2022-10-23T17:01:07.800Z,6.17
2022-10-23T17:03:40.196Z,5.77
2022-10-23T17:06:11.234Z,4.97
2022-10-23T17:08:38.606Z,6.57
2022-10-23T17:11:14.374Z,5.60
2022-10-23T17:13:46.766Z,5.00
2022-10-23T17:16:19.507Z,6.40
2022-10-23T17:18:46.264Z,5.37
2022-10-23T17:21:14.134Z,4.57
2022-10-23T17:23:41.574Z,4.60
2022-10-23T17:26:12.876Z,4.27
2022-10-23T17:28:42.131Z,5.17
2022-10-23T17:31:20.591Z,4.80
2022-10-23T17:33:48.141Z,4.90
2022-10-23T17:36:15.835Z,4.50
2022-10-23T17:38:45.901Z,4.53
2022-10-23T17:41:14.033Z,4.20
2022-10-23T17:43:40.847Z,5.03
2022-10-23T17:46:09.599Z,4.60
2022-10-23T17:48:36.546Z,5.37
2022-10-23T17:51:06.682Z,4.47
2022-10-23T17:53:34.395Z,5.03
2022-10-23T17:56:02.861Z,4.77
2022-10-23T17:58:29.949Z,4.50
2022-10-23T18:00:56.987Z,5.33
2022-10-23T18:03:23.787Z,4.93
2022-10-23T18:05:51.210Z,4.43
2022-10-23T18:08:17.849Z,5.77
2022-10-23T18:10:44.569Z,5.17
2022-10-23T18:13:11.261Z,4.43
2022-10-23T18:15:41.142Z,4.83
2022-10-23T18:18:07.882Z,4.23
2022-10-23T18:20:40.908Z,5.43
2022-10-23T18:23:13.549Z,4.73
2022-10-23T18:25:43.324Z,4.60
2022-10-23T18:28:10.253Z,4.83
2022-10-23T18:33:05.058Z,6.57
2022-10-23T18:35:35.955Z,5.30
2022-10-23T18:38:04.287Z,5.03
2022-10-23T18:40:32.215Z,5.20
2022-10-23T18:42:59.098Z,5.73
2022-10-23T18:45:25.850Z,6.17
2022-10-23T18:47:52.505Z,5.60
2022-10-23T18:50:19.461Z,4.97
2022-10-23T18:52:46.178Z,4.43
2022-10-23T18:55:13.202Z,4.23
2022-10-23T18:57:40.327Z,5.93
2022-10-23T19:00:08.859Z,4.20
2022-10-23T19:02:37.033Z,4.50
2022-10-23T19:05:04.950Z,3.33
2022-10-23T19:07:33.008Z,3.93
2022-10-23T19:10:00.677Z,4.80
2022-10-23T19:12:27.336Z,3.73
2022-10-23T19:14:54.925Z,3.77
2022-10-23T19:17:27.531Z,4.00
2022-10-23T19:20:00.131Z,3.73
2022-10-23T19:22:29.343Z,3.50
2022-10-23T19:25:03.806Z,4.60
2022-10-23T19:27:30.834Z,3.60
2022-10-23T19:30:03.198Z,5.17
2022-10-23T19:32:30.632Z,2.87
2022-10-23T19:34:58.583Z,2.83
2022-10-23T19:37:25.345Z,2.80
2022-10-23T19:39:51.997Z,3.00
2022-10-23T19:42:18.736Z,2.60
2022-10-23T19:44:45.393Z,2.90
2022-10-23T19:47:11.992Z,2.90
2022-10-23T19:49:38.636Z,2.70
2022-10-23T19:52:05.299Z,2.83
2022-10-23T19:54:32.277Z,2.77
2022-10-23T19:56:59.112Z,3.10
2022-10-23T19:59:25.786Z,2.47
2022-10-23T20:01:52.490Z,2.60
2022-10-23T20:04:19.477Z,2.50
2022-10-23T20:06:46.876Z,2.90
2022-10-23T20:09:13.526Z,2.70
2022-10-23T20:11:40.851Z,3.17
2022-10-23T20:14:08.053Z,2.67
2022-10-23T20:16:37.068Z,2.67
2022-10-23T20:19:07.158Z,2.73
2022-10-23T20:21:38.236Z,2.80
2022-10-23T20:24:05.671Z,2.87
2022-10-23T20:26:32.553Z,2.63
2022-10-23T20:28:59.164Z,2.63
2022-10-23T20:31:26.818Z,2.80
2022-10-23T20:33:54.259Z,3.13
2022-10-23T20:36:22.744Z,2.70
2022-10-23T20:38:49.517Z,3.27
2022-10-23T20:41:16.132Z,3.63
2022-10-23T20:43:43.112Z,3.27
2022-10-23T20:46:10.391Z,3.87
2022-10-23T20:48:38.339Z,3.80
2022-10-23T20:51:06.718Z,4.20
2022-10-23T20:53:35.349Z,4.03
2022-10-23T20:56:11.647Z,3.43
2022-10-23T20:58:38.334Z,5.87
2022-10-23T21:01:06.909Z,4.63
2022-10-23T21:03:34.132Z,3.40
2022-10-23T21:06:05.384Z,5.37
2022-10-23T21:08:32.185Z,4.80
2022-10-23T21:10:58.928Z,4.33
2022-10-23T21:13:27.165Z,4.90
2022-10-23T21:15:54.129Z,6.90
2022-10-23T21:18:33.836Z,4.70
2022-10-23T21:21:08.518Z,4.90
2022-10-23T21:23:35.990Z,5.30
2022-10-23T21:26:06.351Z,5.07
2022-10-23T21:28:34.573Z,2.83
2022-10-23T21:31:06.670Z,7.03
2022-10-23T21:33:33.485Z,7.83
2022-10-23T21:36:12.825Z,6.13
2022-10-23T21:38:40.421Z,4.57
2022-10-23T21:41:08.807Z,4.67
2022-10-23T21:43:35.503Z,3.80
2022-10-23T21:46:06.524Z,5.53
2022-10-23T21:48:34.307Z,4.83
2022-10-23T21:51:01.439Z,3.43
2022-10-23T21:53:28.889Z,5.37
2022-10-23T21:55:56.757Z,4.23
2022-10-23T21:58:23.604Z,4.37
2022-10-23T22:00:50.296Z,2.93
2022-10-23T22:03:16.957Z,7.27
2022-10-23T22:05:43.693Z,4.00
2022-10-23T22:08:10.364Z,2.23
2022-10-23T22:10:37.188Z,6.43
2022-10-23T22:13:03.925Z,4.47
2022-10-23T22:15:30.629Z,5.23
2022-10-23T22:17:59.151Z,3.43
2022-10-23T22:20:26.060Z,3.20
2022-10-23T22:22:52.808Z,2.97
2022-10-23T22:25:19.527Z,6.17
2022-10-23T22:27:46.571Z,1.90
2022-10-23T22:30:13.611Z,1.40
2022-10-23T22:32:40.397Z,1.67
2022-10-23T22:35:07.623Z,1.57
2022-10-23T22:37:34.483Z,3.60
2022-10-23T22:40:02.446Z,3.03
2022-10-23T22:42:30.479Z,2.33
2022-10-23T22:44:57.210Z,3.70
2022-10-23T22:47:24.086Z,3.83
2022-10-23T22:49:51.633Z,3.87
2022-10-23T22:52:18.335Z,2.90
2022-10-23T22:54:45.026Z,3.63
2022-10-23T22:57:11.730Z,3.70
2022-10-23T22:59:38.510Z,2.33
2022-10-23T23:02:05.436Z,2.10
2022-10-23T23:04:37.674Z,1.83
2022-10-23T23:07:06.874Z,2.53
2022-10-23T23:09:37.314Z,2.53
2022-10-23T23:12:04.384Z,2.90
2022-10-23T23:14:31.069Z,3.10
2022-10-23T23:16:57.800Z,2.93
2022-10-23T23:19:26.608Z,1.87
2022-10-23T23:21:57.549Z,1.77
2022-10-23T23:24:25.184Z,4.70
2022-10-23T23:26:52.081Z,2.80
2022-10-23T23:29:19.169Z,3.13
2022-10-23T23:31:45.986Z,2.90
2022-10-23T23:34:12.717Z,1.47
2022-10-23T23:36:39.597Z,3.90
2022-10-23T23:39:06.391Z,4.20
2022-10-23T23:41:34.304Z,1.93
2022-10-23T23:44:01.139Z,3.60
2022-10-23T23:46:28.027Z,2.30
2022-10-23T23:48:54.721Z,2.30
2022-10-23T23:51:23.322Z,3.70
2022-10-23T23:53:50.781Z,2.83
2022-10-23T23:56:18.212Z,2.20
2022-10-23T23:58:44.987Z,4.20
